Estación Meteorológica Peña el Pijo (Robertgarden) [ 02/03/23 02:36:07 CET ]

Fecha Hora Presion(HPa) Temp (°C) Humedad % Rocio (°C) Viento ( m/s) Direccion Lluvia 1Hora(mm) Lluvia 24H(mm) LLuvia Total(mm)
2010-May-02 01:01:14 1008.500 10.4 74 6.0         112.92
2010-May-02 02:01:13 1008.600 9.2 80 5.9         112.92
2010-May-02 03:01:46 1008.300 8.4 81 5.3         112.92
2010-May-02 04:03:25 1007.900 7.9 85 5.5         112.92
2010-May-02 05:01:14 1007.300 7.9 85 5.5         112.92
2010-May-02 06:01:11 1007.000 7.3 86 5.1         112.92
2010-May-02 07:01:12 1007.200 6.9 86 4.7         112.92
2010-May-02 08:01:18 1007.600 7.9 88 6.1         112.92
2010-May-02 09:01:16 1007.700 13.8 75 9.4         112.92
2010-May-02 10:01:14 1008.000 17.9 54 8.4         112.92
2010-May-02 11:01:13 1007.800 20.7 37 5.4         112.92
2010-May-02 12:01:11 1007.500 23.8 31 5.6         112.92
2010-May-02 13:01:12 1007.100 23.1 28 3.5         112.92
2010-May-02 14:01:13 1006.300 26.6 26 5.3         112.92
2010-May-02 15:01:15 1005.700 26.4 24 4.0         112.92
2010-May-02 16:01:12 1005.200 25.3 27 4.8         112.92
2010-May-02 17:01:14 1004.800 24.4 39 9.5         112.92
2010-May-02 18:01:16 1004.400 21.4 48 9.9         112.92
2010-May-02 19:01:13 1004.500 19.2 54 9.7         112.92
2010-May-02 20:01:12 1004.500 18.3 58 9.9         112.92
2010-May-02 21:01:13 1004.700 17.1 63 10.0         112.92
2010-May-02 22:01:17 1005.100 14.1 72 9.1         112.92
2010-May-02 23:01:19 1005.400 11.9 74 7.4         112.92

Temperatura Máxima:26°    Temperatura Mínima:
Presión Máxima:1008.600 Hpa    Presión Mínima:1004.400 Hpa


Volver